Skip Navigation

Christman Field Latest Observations

Switch to metric unitsOther observation timesWeekly graphs

Date Time
MST
Temp
°F
RH
%
DewPt
°F
Wind
mph
Dir
°
Gust
mph
Dir
°
Press
in Hg
Solar
W/m^2
Prec
in
2018-04-21 08:20 33.2 100.0 33.2 3.2 323 3.8 320 24.992 100.9 0.00
2018-04-21 08:15 33.1 100.0 33.1 3.1 306 3.7 306 24.992 99.3 0.00
2018-04-21 08:10 33.1 100.0 33.1 3.0 305 3.4 306 24.992 96.3 0.00
2018-04-21 08:05 33.1 100.0 33.1 3.0 304 3.4 303 24.992 98.8 0.00
2018-04-21 08:00 33.0 100.0 33.0 2.8 300 3.3 306 24.992 94.0 0.00
2018-04-21 07:55 32.9 100.0 32.9 2.6 315 3.1 317 24.993 82.3 0.01
2018-04-21 07:50 32.8 100.0 32.8 2.7 319 3.4 312 24.993 77.0 0.00
2018-04-21 07:45 32.6 100.0 32.6 3.3 314 3.9 313 24.992 61.8 0.00
2018-04-21 07:40 32.5 100.0 32.5 3.7 310 4.2 320 24.993 45.0 0.00
2018-04-21 07:35 32.5 100.0 32.5 3.8 321 4.2 323 24.994 36.4 0.01
2018-04-21 07:30 32.5 100.0 32.5 4.1 323 4.5 329 24.993 29.6 0.00
2018-04-21 07:25 32.5 100.0 32.5 3.8 334 4.5 331 24.993 26.9 0.00
2018-04-21 07:20 32.6 100.0 32.6 3.8 329 4.2 318 24.992 30.9 0.01
2018-04-21 07:15 32.5 100.0 32.5 3.8 317 4.3 314 24.990 33.7 0.00
2018-04-21 07:10 32.6 100.0 32.6 3.1 314 4.3 314 24.989 35.0 0.00
2018-04-21 07:05 32.6 100.0 32.6 2.8 340 3.7 347 24.988 29.5 0.00
2018-04-21 07:00 32.6 100.0 32.6 2.6 355 3.1 0 24.988 27.4 0.00
2018-04-21 06:55 32.7 100.0 32.7 2.6 359 2.9 359 24.988 34.0 0.00
2018-04-21 06:50 32.7 100.0 32.7 2.4 356 2.8 356 24.985 36.0 0.00
2018-04-21 06:45 32.8 100.0 32.8 1.6 349 2.1 349 24.985 34.3 0.00
2018-04-21 06:40 32.8 100.0 32.8 1.3 350 1.7 350 24.984 29.0 0.00
2018-04-21 06:35 32.8 100.0 32.8 0.4 332 0.9 332 24.982 23.1 0.00
2018-04-21 06:30 32.8 100.0 32.8 0.2 332 0.5 332 24.981 17.5 0.00
2018-04-21 06:25 32.9 100.0 32.9 0.1 303 0.6 303 24.980 15.5 0.00
2018-04-21 06:20 32.9 100.0 32.9 0.6 303 0.9 303 24.977 15.4 0.00
2018-04-21 06:15 32.8 100.0 32.8 1.2 303 1.5 303 24.975 11.4 0.00
2018-04-21 06:10 32.8 100.0 32.8 1.4 303 1.6 303 24.974 7.7 0.00
2018-04-21 06:05 32.7 100.0 32.7 1.8 303 2.4 303 24.974 6.9 0.00
2018-04-21 06:00 32.8 100.0 32.8 1.3 300 2.6 299 24.973 6.6 0.00
2018-04-21 05:55 32.7 100.0 32.7 0.1 315 1.1 315 24.970 5.0 0.00